createdAt,value
2019-05-21T00:00:59.981Z,99734.87
2019-05-21T00:03:29.604Z,99730.48
2019-05-21T00:05:59.256Z,99734.32
2019-05-21T00:08:28.879Z,99732.81
2019-05-21T00:10:58.524Z,99719.75
2019-05-21T00:13:28.142Z,99725.97
2019-05-21T00:15:57.795Z,99725.23
2019-05-21T00:18:27.422Z,99719.97
2019-05-21T00:20:57.066Z,99724.55
2019-05-21T00:23:26.692Z,99727.18
2019-05-21T00:25:56.457Z,99718.94
2019-05-21T00:28:40.742Z,99723.23
2019-05-21T00:31:46.435Z,99728.14
2019-05-21T00:34:51.940Z,99722.01
2019-05-21T00:37:57.332Z,99723.73
2019-05-21T00:41:02.594Z,99729.98
2019-05-21T00:43:47.013Z,99734.13
2019-05-21T00:46:16.662Z,99727.09
2019-05-21T00:48:46.298Z,99731.39
2019-05-21T00:51:15.926Z,99737.05
2019-05-21T00:53:45.569Z,99735.61
2019-05-21T00:56:15.198Z,99735.61
2019-05-21T00:58:44.924Z,99732.16
2019-05-21T01:01:14.549Z,99729.95
2019-05-21T01:03:44.206Z,99726.22
2019-05-21T01:06:13.831Z,99723.75
2019-05-21T01:08:43.500Z,99732.38
2019-05-21T01:11:13.472Z,99740.97
2019-05-21T01:13:43.144Z,99737.31
2019-05-21T01:16:12.760Z,99734.59
2019-05-21T01:18:42.692Z,99733.09
2019-05-21T01:21:12.320Z,99734.95
2019-05-21T01:23:41.977Z,99732.25
2019-05-21T01:26:11.844Z,99742.26
2019-05-21T01:28:41.596Z,99740.20
2019-05-21T01:31:11.248Z,99736.46
2019-05-21T01:33:41.368Z,99741.72
2019-05-21T01:36:11.184Z,99744.81
2019-05-21T01:38:40.809Z,99740.61
2019-05-21T01:41:10.457Z,99739.45
2019-05-21T01:43:40.480Z,99744.70
2019-05-21T01:46:10.132Z,99745.38
2019-05-21T01:48:42.742Z,99741.44
2019-05-21T01:51:12.656Z,99748.64
2019-05-21T01:53:42.282Z,99747.44
2019-05-21T01:56:11.953Z,99744.97
2019-05-21T01:58:41.580Z,99747.88
2019-05-21T02:01:11.228Z,99745.84
2019-05-21T02:03:40.853Z,99745.61
2019-05-21T02:06:10.736Z,99744.53
2019-05-21T02:08:40.418Z,99743.52
2019-05-21T02:11:10.110Z,99737.02
2019-05-21T02:13:39.707Z,99740.34
2019-05-21T02:16:09.806Z,99737.53
2019-05-21T02:18:39.444Z,99741.42
2019-05-21T02:21:09.659Z,99747.05
2019-05-21T02:23:39.275Z,99746.94
2019-05-21T02:26:08.929Z,99740.49
2019-05-21T02:28:38.551Z,99742.75
2019-05-21T02:31:08.213Z,99746.12
2019-05-21T02:33:37.840Z,99743.86
2019-05-21T02:36:07.495Z,99751.10
2019-05-21T02:38:37.124Z,99751.67
2019-05-21T02:41:06.828Z,99751.20
2019-05-21T02:43:36.455Z,99749.26
2019-05-21T02:46:07.549Z,99747.91
2019-05-21T02:48:37.202Z,99750.27
2019-05-21T02:51:06.860Z,99748.59
2019-05-21T02:53:36.581Z,99754.45
2019-05-21T02:56:06.228Z,99754.62
2019-05-21T02:58:35.849Z,99762.38
2019-05-21T03:01:07.132Z,99760.08
2019-05-21T03:03:36.762Z,99765.90
2019-05-21T03:06:13.776Z,99761.23
2019-05-21T03:08:37.856Z,99762.75
2019-05-21T03:11:07.491Z,99767.89
2019-05-21T03:13:37.119Z,99769.00
2019-05-21T03:16:06.769Z,99768.62
2019-05-21T03:18:36.393Z,99771.94
2019-05-21T03:21:06.051Z,99772.16
2019-05-21T03:23:35.674Z,99771.72
2019-05-21T03:26:05.398Z,99773.73
2019-05-21T03:28:35.125Z,99767.22
2019-05-21T03:31:04.774Z,99772.25
2019-05-21T03:33:34.400Z,99774.83
2019-05-21T03:36:04.054Z,99776.23
2019-05-21T03:38:33.686Z,99774.88
2019-05-21T03:41:03.335Z,99782.81
2019-05-21T03:43:32.953Z,99783.53
2019-05-21T03:46:02.798Z,99784.59
2019-05-21T03:48:32.413Z,99787.45
2019-05-21T03:51:02.074Z,99786.30
2019-05-21T03:53:31.688Z,99789.65
2019-05-21T03:56:01.349Z,99783.53
2019-05-21T03:58:30.974Z,99789.53
2019-05-21T04:01:00.692Z,99788.03
2019-05-21T04:03:30.314Z,99786.86
2019-05-21T04:05:59.980Z,99781.53
2019-05-21T04:08:29.593Z,99791.62
2019-05-21T04:10:59.241Z,99786.05
2019-05-21T04:13:28.861Z,99778.30
2019-05-21T04:16:02.898Z,99781.89
2019-05-21T04:18:42.925Z,99780.98
2019-05-21T04:21:12.658Z,99785.67
2019-05-21T04:23:42.268Z,99782.41
2019-05-21T04:26:12.633Z,99786.17
2019-05-21T04:28:42.656Z,99782.02
2019-05-21T04:31:12.279Z,99782.81
2019-05-21T04:33:41.935Z,99773.32
2019-05-21T04:36:11.989Z,99772.48
2019-05-21T04:38:41.659Z,99767.00
2019-05-21T04:41:11.292Z,99770.38
2019-05-21T04:43:41.129Z,99768.51
2019-05-21T04:46:10.768Z,99770.91
2019-05-21T04:48:40.525Z,99765.84
2019-05-21T04:51:13.752Z,99761.20
2019-05-21T04:53:41.566Z,99765.21
2019-05-21T04:56:11.200Z,99762.55
2019-05-21T04:58:41.253Z,99767.77
2019-05-21T05:01:10.887Z,99768.84
2019-05-21T05:03:40.618Z,99768.96
2019-05-21T05:06:10.248Z,99770.84
2019-05-21T05:08:40.017Z,99773.54
2019-05-21T05:11:09.647Z,99780.76
2019-05-21T05:13:41.496Z,99771.58
2019-05-21T05:16:11.577Z,99767.37
2019-05-21T05:18:43.981Z,99776.00
2019-05-21T05:21:15.334Z,99771.44
2019-05-21T05:23:53.432Z,99775.01
2019-05-21T05:26:25.299Z,99774.39
2019-05-21T05:28:58.293Z,99784.85
2019-05-21T05:31:28.455Z,99781.56
2019-05-21T05:33:58.212Z,99787.53
2019-05-21T05:36:27.839Z,99784.59
2019-05-21T05:38:57.689Z,99787.30
2019-05-21T05:41:27.303Z,99787.05
2019-05-21T05:43:56.968Z,99791.19
2019-05-21T05:46:26.596Z,99787.58
2019-05-21T05:49:01.469Z,99791.45
2019-05-21T05:51:29.217Z,99792.48
2019-05-21T05:53:58.886Z,99795.64
2019-05-21T05:56:29.592Z,99796.81
2019-05-21T05:58:59.579Z,99788.91
2019-05-21T06:01:30.874Z,99789.27
2019-05-21T06:04:00.554Z,99787.81
2019-05-21T06:06:30.181Z,99792.66
2019-05-21T06:08:59.879Z,99790.69
2019-05-21T06:11:29.601Z,99787.87
2019-05-21T06:13:59.932Z,99781.94
2019-05-21T06:16:29.573Z,99779.30
2019-05-21T06:18:59.665Z,99777.19
2019-05-21T06:21:29.765Z,99770.72
2019-05-21T06:23:59.650Z,99770.91
2019-05-21T06:26:29.372Z,99777.19
2019-05-21T06:28:59.032Z,99774.69
2019-05-21T06:31:29.040Z,99770.37
2019-05-21T06:33:58.703Z,99769.52
2019-05-21T06:36:29.119Z,99769.17
2019-05-21T06:38:58.781Z,99759.88
2019-05-21T06:41:29.576Z,99765.33
2019-05-21T06:43:59.655Z,99768.28
2019-05-21T06:46:29.745Z,99762.48
2019-05-21T06:49:00.823Z,99766.13
2019-05-21T06:51:30.561Z,99767.25
2019-05-21T06:54:00.500Z,99764.41
2019-05-21T06:56:30.432Z,99765.04
2019-05-21T06:59:00.067Z,99770.14
2019-05-21T07:01:29.942Z,99764.59
2019-05-21T07:03:59.760Z,99761.57
2019-05-21T07:06:29.711Z,99767.16
2019-05-21T07:08:59.330Z,99767.59
2019-05-21T07:11:29.133Z,99768.02
2019-05-21T07:13:58.934Z,99768.99
2019-05-21T07:16:29.119Z,99769.91
2019-05-21T07:18:59.169Z,99773.52
2019-05-21T07:21:29.804Z,99775.74
2019-05-21T07:24:00.151Z,99774.06
2019-05-21T07:26:30.538Z,99770.97
2019-05-21T07:29:00.539Z,99776.86
2019-05-21T07:31:30.192Z,99772.63
2019-05-21T07:34:02.554Z,99773.65
2019-05-21T07:36:34.614Z,99779.92
2019-05-21T07:39:06.455Z,99781.43
2019-05-21T07:41:37.409Z,99785.48
2019-05-21T07:44:07.017Z,99779.83
2019-05-21T07:46:39.513Z,99778.85
2019-05-21T07:49:12.243Z,99777.58
2019-05-21T07:51:42.924Z,99775.76
2019-05-21T07:54:12.553Z,99774.09
2019-05-21T07:56:42.222Z,99774.55
2019-05-21T07:59:11.847Z,99769.55
2019-05-21T08:01:41.515Z,99773.19
2019-05-21T08:04:11.169Z,99767.47
2019-05-21T08:06:40.810Z,99772.33
2019-05-21T08:09:13.798Z,99770.44
2019-05-21T08:11:41.789Z,99775.05
2019-05-21T08:14:11.416Z,99778.50
2019-05-21T08:16:41.267Z,99774.07
2019-05-21T08:19:10.874Z,99772.21
2019-05-21T08:21:40.547Z,99769.70
2019-05-21T08:24:10.221Z,99771.87
2019-05-21T08:26:39.888Z,99766.94
2019-05-21T08:29:09.537Z,99768.09
2019-05-21T08:31:41.537Z,99757.93
2019-05-21T08:34:11.158Z,99761.35
2019-05-21T08:36:42.626Z,99762.75
2019-05-21T08:39:27.355Z,99764.83
2019-05-21T08:41:43.659Z,99760.25
2019-05-21T08:44:13.282Z,99763.50
2019-05-21T08:46:42.932Z,99758.38
2019-05-21T08:49:13.990Z,99765.67
2019-05-21T08:51:43.653Z,99757.86
2019-05-21T08:54:13.307Z,99757.87
2019-05-21T08:56:43.052Z,99762.28
2019-05-21T08:59:12.674Z,99763.11
2019-05-21T09:01:42.330Z,99766.38
2019-05-21T09:04:11.951Z,99763.79
2019-05-21T09:06:41.602Z,99772.29
2019-05-21T09:09:11.236Z,99762.53
2019-05-21T09:11:40.864Z,99769.38
2019-05-21T09:14:10.583Z,99769.55
2019-05-21T09:16:41.685Z,99774.05
2019-05-21T09:19:11.403Z,99776.05
2019-05-21T09:21:41.059Z,99776.84
2019-05-21T09:24:10.684Z,99773.52
2019-05-21T09:26:40.343Z,99775.38
2019-05-21T09:29:10.077Z,99775.89
2019-05-21T09:31:39.712Z,99769.41
2019-05-21T09:34:09.332Z,99774.44
2019-05-21T09:36:39.406Z,99765.21
2019-05-21T09:39:09.096Z,99771.92
2019-05-21T09:41:38.801Z,99764.11
2019-05-21T09:44:08.444Z,99758.43
2019-05-21T09:46:38.095Z,99763.61
2019-05-21T09:49:07.817Z,99761.44
2019-05-21T09:51:37.468Z,99757.98
2019-05-21T09:54:07.398Z,99757.27
2019-05-21T09:56:37.325Z,99752.84
2019-05-21T09:59:17.516Z,99756.38
2019-05-21T10:01:48.815Z,99751.39
2019-05-21T10:04:18.483Z,99755.34
2019-05-21T10:06:48.211Z,99747.94
2019-05-21T10:09:19.645Z,99759.65
2019-05-21T10:11:49.358Z,99754.21
2019-05-21T10:14:19.016Z,99752.75
2019-05-21T10:16:48.727Z,99748.26
2019-05-21T10:19:18.375Z,99748.16
2019-05-21T10:21:47.997Z,99745.52
2019-05-21T10:24:17.749Z,99753.23
2019-05-21T10:26:47.475Z,99747.33
2019-05-21T10:29:17.255Z,99750.55
2019-05-21T10:31:47.275Z,99757.37
2019-05-21T10:34:16.910Z,99745.56
2019-05-21T10:36:46.555Z,99751.83
2019-05-21T10:39:16.246Z,99750.92
2019-05-21T10:41:46.334Z,99758.45
2019-05-21T10:44:17.128Z,99733.84
2019-05-21T10:46:46.950Z,99739.64
2019-05-21T10:49:16.567Z,99760.67
2019-05-21T10:51:46.229Z,99754.72
2019-05-21T10:54:15.886Z,99761.39
2019-05-21T10:56:48.270Z,99760.22
2019-05-21T10:59:16.909Z,99753.05
2019-05-21T11:01:48.168Z,99756.27
2019-05-21T11:04:22.095Z,99754.12
2019-05-21T11:06:51.852Z,99753.34
2019-05-21T11:09:22.771Z,99763.78
2019-05-21T11:11:52.387Z,99763.69
2019-05-21T11:14:22.273Z,99752.22
2019-05-21T11:16:52.068Z,99761.77
2019-05-21T11:19:21.783Z,99760.02
2019-05-21T11:21:51.441Z,99756.73
2019-05-21T11:24:21.107Z,99756.34
2019-05-21T11:26:50.795Z,99757.96
2019-05-21T11:29:20.497Z,99752.11
2019-05-21T11:31:56.865Z,99746.06
2019-05-21T11:34:21.595Z,99745.86
2019-05-21T11:36:51.239Z,99749.66
2019-05-21T11:39:21.019Z,99745.23
2019-05-21T11:41:51.733Z,99753.10
2019-05-21T11:44:21.592Z,99741.62
2019-05-21T11:46:51.182Z,99741.48
2019-05-21T11:49:20.834Z,99738.45
2019-05-21T11:51:50.455Z,99737.72
2019-05-21T11:54:20.151Z,99728.78
2019-05-21T11:56:49.863Z,99733.84
2019-05-21T11:59:19.513Z,99731.75
2019-05-21T12:01:49.288Z,99737.47
2019-05-21T12:04:19.245Z,99744.79
2019-05-21T12:06:48.912Z,99741.25
2019-05-21T12:09:18.513Z,99721.34
2019-05-21T12:11:48.181Z,99721.34
2019-05-21T12:14:17.809Z,99734.10
2019-05-21T12:16:47.505Z,99732.08
2019-05-21T12:19:17.230Z,99741.95
2019-05-21T12:21:46.885Z,99741.28
2019-05-21T12:24:16.514Z,99746.45
2019-05-21T12:26:46.206Z,99742.77
2019-05-21T12:29:15.928Z,99743.70
2019-05-21T12:31:45.623Z,99743.21
2019-05-21T12:34:15.282Z,99748.28
2019-05-21T12:36:44.939Z,99757.29
2019-05-21T12:39:15.120Z,99756.02
2019-05-21T12:41:44.748Z,99763.11
2019-05-21T12:44:14.441Z,99771.27
2019-05-21T12:46:44.435Z,99783.45
2019-05-21T12:49:17.107Z,99780.88
2019-05-21T12:51:46.710Z,99774.33
2019-05-21T12:54:16.412Z,99764.30
2019-05-21T12:56:47.522Z,99750.73
2019-05-21T12:59:17.134Z,99753.62
2019-05-21T13:01:46.798Z,99759.28
2019-05-21T13:04:16.499Z,99754.19
2019-05-21T13:06:46.160Z,99747.06
2019-05-21T13:09:31.327Z,99739.86
2019-05-21T13:11:47.190Z,99738.48
2019-05-21T13:14:18.896Z,99741.52
2019-05-21T13:16:48.146Z,99741.28
2019-05-21T13:19:18.372Z,99744.50
2019-05-21T13:21:48.115Z,99747.11
2019-05-21T13:24:17.763Z,99747.28
2019-05-21T13:26:47.422Z,99740.29
2019-05-21T13:29:17.072Z,99737.10
2019-05-21T13:31:46.729Z,99738.55
2019-05-21T13:34:16.353Z,99741.81
2019-05-21T13:36:46.007Z,99736.02
2019-05-21T13:39:15.701Z,99739.09
2019-05-21T13:41:45.374Z,99740.38
2019-05-21T13:44:14.992Z,99736.24
2019-05-21T13:46:44.648Z,99736.39
2019-05-21T13:49:14.278Z,99731.25
2019-05-21T13:51:44.023Z,99727.77
2019-05-21T13:54:13.677Z,99724.57
2019-05-21T13:56:43.347Z,99723.23
2019-05-21T13:59:13.011Z,99724.30
2019-05-21T14:01:42.645Z,99734.59
2019-05-21T14:04:12.487Z,99736.42
2019-05-21T14:06:42.281Z,99741.23
2019-05-21T14:09:12.119Z,99731.86
2019-05-21T14:11:41.750Z,99729.09
2019-05-21T14:14:11.426Z,99729.32
2019-05-21T14:16:41.037Z,99728.02
2019-05-21T14:19:10.724Z,99740.11
2019-05-21T14:21:41.129Z,99738.23
2019-05-21T14:24:11.254Z,99748.44
2019-05-21T14:26:41.065Z,99740.05
2019-05-21T14:29:10.716Z,99741.45
2019-05-21T14:31:40.331Z,99741.58
2019-05-21T14:34:10.081Z,99731.75
2019-05-21T14:36:39.776Z,99728.19
2019-05-21T14:39:13.769Z,99731.86
2019-05-21T14:41:43.415Z,99728.53
2019-05-21T14:44:13.194Z,99721.44
2019-05-21T14:46:43.008Z,99730.05
2019-05-21T14:49:14.163Z,99729.57
2019-05-21T14:51:43.917Z,99726.41
2019-05-21T14:54:25.989Z,99726.52
2019-05-21T14:56:47.386Z,99731.78
2019-05-21T14:59:16.243Z,99729.39
2019-05-21T15:01:45.921Z,99735.33
2019-05-21T15:04:15.665Z,99737.75
2019-05-21T15:06:45.279Z,99739.16
2019-05-21T15:09:14.944Z,99737.88
2019-05-21T15:11:45.077Z,99735.27
2019-05-21T15:14:16.330Z,99739.91
2019-05-21T15:16:46.179Z,99739.16
2019-05-21T15:19:15.826Z,99740.36
2019-05-21T15:21:55.992Z,99741.23
2019-05-21T15:24:25.642Z,99742.05
2019-05-21T15:26:55.434Z,99728.98
2019-05-21T15:29:25.213Z,99736.85
2019-05-21T15:31:54.937Z,99735.52
2019-05-21T15:34:24.594Z,99727.56
2019-05-21T15:36:54.792Z,99723.70
2019-05-21T15:39:24.447Z,99722.38
2019-05-21T15:41:54.324Z,99727.25
2019-05-21T15:44:24.073Z,99724.49
2019-05-21T15:46:53.697Z,99730.42
2019-05-21T15:49:35.580Z,99732.70
2019-05-21T15:51:54.807Z,99729.92
2019-05-21T15:54:24.469Z,99728.86
2019-05-21T15:56:54.088Z,99724.48
2019-05-21T15:59:23.739Z,99728.95
2019-05-21T16:01:53.363Z,99721.97
2019-05-21T16:04:23.028Z,99718.68
2019-05-21T16:06:52.651Z,99719.30
2019-05-21T16:09:22.300Z,99725.45
2019-05-21T16:11:51.951Z,99725.95
2019-05-21T16:14:21.619Z,99726.16
2019-05-21T16:16:51.231Z,99721.07
2019-05-21T16:19:20.879Z,99725.45
2019-05-21T16:21:50.490Z,99713.59
2019-05-21T16:24:20.141Z,99715.44
2019-05-21T16:26:49.788Z,99724.52
2019-05-21T16:29:19.435Z,99728.56
2019-05-21T16:31:49.055Z,99726.10
2019-05-21T16:34:18.781Z,99730.47
2019-05-21T16:36:48.455Z,99730.97
2019-05-21T16:39:19.772Z,99730.65
2019-05-21T16:41:49.427Z,99723.25
2019-05-21T16:44:19.063Z,99723.25
2019-05-21T16:46:48.784Z,99723.95
2019-05-21T16:49:18.429Z,99731.61
2019-05-21T16:51:48.060Z,99722.67
2019-05-21T16:54:17.675Z,99717.30
2019-05-21T16:56:47.314Z,99722.09
2019-05-21T16:59:16.942Z,99718.68
2019-05-21T17:01:46.614Z,99714.81
2019-05-21T17:04:16.227Z,99721.97
2019-05-21T17:06:45.890Z,99720.39
2019-05-21T17:09:15.489Z,99722.06
2019-05-21T17:11:59.045Z,99719.83
2019-05-21T17:14:16.475Z,99718.25
2019-05-21T17:16:46.120Z,99719.58
2019-05-21T17:19:15.736Z,99717.50
2019-05-21T17:21:45.498Z,99711.72
2019-05-21T17:24:15.112Z,99712.14
2019-05-21T17:26:44.856Z,99703.28
2019-05-21T17:29:14.488Z,99701.38
2019-05-21T17:31:44.200Z,99697.47
2019-05-21T17:34:13.842Z,99704.22
2019-05-21T17:36:43.505Z,99698.98
2019-05-21T17:39:13.158Z,99696.23
2019-05-21T17:41:42.803Z,99694.61
2019-05-21T17:44:12.428Z,99699.99
2019-05-21T17:46:42.077Z,99697.20
2019-05-21T17:49:11.755Z,99693.33
2019-05-21T17:51:41.412Z,99682.27
2019-05-21T17:54:11.036Z,99679.98
2019-05-21T17:56:40.783Z,99678.42
2019-05-21T17:59:10.400Z,99682.97
2019-05-21T18:01:40.048Z,99680.77
2019-05-21T18:04:10.250Z,99674.30
2019-05-21T18:06:40.807Z,99673.53
2019-05-21T18:09:12.637Z,99672.20
2019-05-21T18:11:42.429Z,99680.46
2019-05-21T18:14:12.392Z,99690.78
2019-05-21T18:16:42.392Z,99682.81
2019-05-21T18:19:12.487Z,99686.30
2019-05-21T18:21:42.762Z,99688.06
2019-05-21T18:24:12.820Z,99700.34
2019-05-21T18:26:42.481Z,99694.88
2019-05-21T18:29:12.101Z,99691.77
2019-05-21T18:31:41.782Z,99689.95
2019-05-21T18:34:11.414Z,99700.92
2019-05-21T18:36:41.145Z,99699.95
2019-05-21T18:39:10.883Z,99711.59
2019-05-21T18:41:40.542Z,99720.90
2019-05-21T18:44:10.274Z,99782.42
2019-05-21T18:46:39.927Z,99799.91
2019-05-21T18:49:09.563Z,99791.84
2019-05-21T18:51:39.261Z,99777.70
2019-05-21T18:54:08.894Z,99784.26
2019-05-21T18:56:38.545Z,99782.13
2019-05-21T18:59:08.198Z,99781.14
2019-05-21T19:01:38.586Z,99787.77
2019-05-21T19:04:08.311Z,99787.61
2019-05-21T19:06:37.929Z,99790.73
2019-05-21T19:09:08.212Z,99793.89
2019-05-21T19:11:37.836Z,99792.69
2019-05-21T19:14:07.645Z,99794.34
2019-05-21T19:16:37.262Z,99796.14
2019-05-21T19:19:06.981Z,99791.67
2019-05-21T19:21:36.681Z,99794.31
2019-05-21T19:24:06.320Z,99791.00
2019-05-21T19:26:35.946Z,99788.16
2019-05-21T19:29:07.747Z,99784.38
2019-05-21T19:31:37.150Z,99785.70
2019-05-21T19:34:07.067Z,99779.28
2019-05-21T19:36:36.708Z,99784.55
2019-05-21T19:39:07.959Z,99789.00
2019-05-21T19:41:37.572Z,99784.55
2019-05-21T19:44:07.288Z,99784.72
2019-05-21T19:46:37.008Z,99787.69
2019-05-21T19:49:06.669Z,99788.52
2019-05-21T19:51:36.391Z,99784.08
2019-05-21T19:54:06.037Z,99775.13
2019-05-21T19:56:36.698Z,99782.91
2019-05-21T19:59:06.364Z,99782.75
2019-05-21T20:01:36.145Z,99777.29
2019-05-21T20:04:06.809Z,99782.09
2019-05-21T20:06:36.495Z,99790.67
2019-05-21T20:09:08.667Z,99786.39
2019-05-21T20:11:38.507Z,99787.05
2019-05-21T20:14:08.112Z,99783.41
2019-05-21T20:16:38.121Z,99782.92
2019-05-21T20:19:09.662Z,99782.58
2019-05-21T20:21:39.495Z,99778.47
2019-05-21T20:24:09.599Z,99778.45
2019-05-21T20:26:39.416Z,99776.16
2019-05-21T20:29:09.396Z,99779.80
2019-05-21T20:31:40.608Z,99772.34
2019-05-21T20:34:11.722Z,99782.11
2019-05-21T20:36:41.569Z,99772.69
2019-05-21T20:39:12.966Z,99779.28
2019-05-21T20:41:43.457Z,99779.44
2019-05-21T20:44:14.917Z,99772.16
2019-05-21T20:46:45.516Z,99775.15
2019-05-21T20:49:15.340Z,99776.12
2019-05-21T20:51:45.029Z,99771.18
2019-05-21T20:54:15.659Z,99777.63
2019-05-21T20:56:45.292Z,99777.47
2019-05-21T20:59:14.944Z,99774.63
2019-05-21T21:01:44.999Z,99773.98
2019-05-21T21:04:14.729Z,99783.39
2019-05-21T21:06:44.410Z,99780.42
2019-05-21T21:09:14.404Z,99777.45
2019-05-21T21:11:44.459Z,99777.45
2019-05-21T21:14:18.287Z,99774.48
2019-05-21T21:16:47.603Z,99777.14
2019-05-21T21:19:17.488Z,99771.34
2019-05-21T21:21:47.123Z,99767.55
2019-05-21T21:24:17.332Z,99771.84
2019-05-21T21:26:46.996Z,99771.33
2019-05-21T21:29:16.646Z,99760.94
2019-05-21T21:31:46.640Z,99761.75
2019-05-21T21:34:16.533Z,99760.94
2019-05-21T21:36:46.229Z,99761.60
2019-05-21T21:39:16.427Z,99762.58
2019-05-21T21:41:47.342Z,99765.38
2019-05-21T21:44:32.695Z,99760.91
2019-05-21T21:46:49.531Z,99761.58
2019-05-21T21:49:20.081Z,99753.30
2019-05-21T21:51:50.196Z,99760.91
2019-05-21T21:54:20.699Z,99765.52
2019-05-21T21:56:50.581Z,99766.84
2019-05-21T21:59:20.202Z,99768.48
2019-05-21T22:02:01.513Z,99768.80
2019-05-21T22:04:32.782Z,99770.27
2019-05-21T22:07:03.271Z,99767.12
2019-05-21T22:09:33.644Z,99778.52
2019-05-21T22:12:05.299Z,99781.30
2019-05-21T22:14:49.726Z,99788.60
2019-05-21T22:17:08.923Z,99776.70
2019-05-21T22:19:39.643Z,99782.97
2019-05-21T22:22:10.541Z,99783.16
2019-05-21T22:24:40.338Z,99781.52
2019-05-21T22:27:10.310Z,99781.69
2019-05-21T22:29:40.185Z,99783.33
2019-05-21T22:32:10.010Z,99787.63
2019-05-21T22:34:39.630Z,99787.16
2019-05-21T22:37:11.124Z,99780.73
2019-05-21T22:39:42.461Z,99782.03
2019-05-21T22:42:13.084Z,99771.46
2019-05-21T22:44:42.933Z,99770.14
2019-05-21T22:47:12.826Z,99774.12
2019-05-21T22:49:42.633Z,99766.19
2019-05-21T22:52:12.772Z,99763.02
2019-05-21T22:54:42.392Z,99760.53
2019-05-21T22:57:12.113Z,99766.81
2019-05-21T22:59:41.742Z,99765.30
2019-05-21T23:02:13.197Z,99769.41
2019-05-21T23:04:42.988Z,99767.10
2019-05-21T23:07:12.741Z,99769.38
2019-05-21T23:09:42.470Z,99776.95
2019-05-21T23:12:12.323Z,99769.66
2019-05-21T23:14:42.083Z,99770.33
2019-05-21T23:17:11.906Z,99774.11
2019-05-21T23:19:41.910Z,99770.16
2019-05-21T23:22:16.044Z,99774.60
2019-05-21T23:24:48.077Z,99773.25
2019-05-21T23:27:19.457Z,99772.05
2019-05-21T23:29:49.760Z,99772.70
2019-05-21T23:32:19.552Z,99776.49
2019-05-21T23:34:49.410Z,99779.41
2019-05-21T23:37:20.966Z,99774.09
2019-05-21T23:39:53.069Z,99777.74
2019-05-21T23:42:29.577Z,99776.73
2019-05-21T23:44:54.468Z,99780.04
2019-05-21T23:47:24.395Z,99778.06
2019-05-21T23:49:54.187Z,99776.22
2019-05-21T23:52:25.272Z,99778.99
2019-05-21T23:54:54.909Z,99778.37
2019-05-21T23:57:26.187Z,99783.65
2019-05-21T23:59:56.085Z,99782.16
